3TX8 weather

Hill Country Memorial Hospital Heliport
Fredericksburg, Texas, United States

Public forecast

Using degrees Fahrenheit for public forecast. Weather courtesy of forecast.io.

Closest aviation weather report (METAR) to Hill Country Memorial Hospital Heliport

Closest report is Gillespie County Airport, 1.9 nm (3.5 km) SW. Retrieved 2019/10/19 18:35 UTC (5 minutes ago):

KT82 191835Z AUTO 30008KT 10SM CLR 31/08 A2982 RMK AO2 T03070082

Closest aviation forecast (TAF) to Hill Country Memorial Hospital Heliport

Closest forecast is Kimble County Airport, 48.1 nm (89.1 km) WNW. Retrieved 2019/10/19 18:22 UTC (18 minutes ago):

TAF KJCT 191720Z 1918/2018 33009KT P6SM SKC FM200100 VRB02KT P6SM SKC